Birchwood Airport Birchwood US
ICAO: PABV
IATA:
Category: Medium
Scheduled Services:

Elevation: 83 ft
TransAlt. 18000 ft.

Airport Communications:
AWOS 3:135.55
ANCHORAGE CNTR:132.3
CTAF/UNICOM:123

PABV Zoom In..

Runways:

(A) RW 02L length 4010 ft width 100 ft
---- / hdg 14

(B) RW 02R length 2200 ft width 50 ft
---- / hdg 14

(C) RW 20L length 2200 ft width 50 ft
---- / hdg 194

(D) RW 20R length 4010 ft width 100 ft
---- / hdg 194

Location; PABV
Day. 20 / Time. 09.56 Zulu
* Altimeter: 29.39
* Temperature: 06° c. 42.8°f.
* Wind from: 210° Speed 06 kn.
Dewpoint: -01° c.
Visibility: 10 Statute Miles.
Clouds: Few 12000 ft.

PABV 200956Z AUTO 21006KT 10SM FEW120 06/M01 A2939 RMK AO2 SLP961 T00561011 $


Wind From 210°
Speed 06 kn.

  YouTube Music Video
 
jpsmedia.com for Web Design  worldairports.se 2018   terms of use